There are no active watches, warnings or advisories



For GOD so loved the world that HE gave HIS one and only SON, that whoever believes in HIM shall not perish but have eternal life.


Thunder radar more information blitzortung!


Rain radar more information rain snow radar



Nearby METAR Reports

   
SBAE - Bauru, Brazil
Updated: Dec 31 1969 7:00 pm
NOT Current
  
  
   Wind: Calm
Wind: Calm
KMCO - Orlando, Florida
Updated: Oct 22 2018 3:53 pm
Mostly Cloudy  
Mostly Cloudy  
   Wind: East 16.1 mph
Wind: East 16.1 mph
Temperature: 80.6°F
Heat Index: 80.6°F
Dew Point: 60.8°F
Humidity: 51%
Barometer: 30.12 inHg
Clouds: Mostly Cloudy
Visibility: 10 mi
Cloud details: Partly Cloudy 5000 ft,
Partly Cloudy 6000 ft,
Mostly Cloudy 25000 ft
KMCO 221953Z 10014KT 10SM SCT050 SCT060 BKN250 27/16 A3012 RMK AO2 SLP197 T02720156
KJHW - Jamestown, NY
Updated: Oct 22 2018 3:56 pm
Clear  
Clear  
   Wind: WSW 9.2 mph
Wind: WSW 9.2 mph
Temperature: 48.2°F
Wind Chill: 44.6°F
Dew Point: 30.2°F
Humidity: 50%
Barometer: 30.03 inHg
Clouds: Clear
Visibility: 10 mi
Cloud details: Clear
KJHW 221956Z AUTO 25008KT 10SM CLR 09/M01 A3003 RMK AO2 SLP184 T00941006
KSAT - San Antinio, TX
Updated: Oct 22 2018 3:51 pm
Light Rain, Overcast  
Light Rain, Overcast  
   Wind: ENE 5.8 mph
Wind: ENE 5.8 mph
Temperature: 64.4°F
Dew Point: 51.8°F
Humidity: 64%
Barometer: 30.15 inHg
Clouds: Overcast
Visibility: 10 mi
Cloud details: Few Clouds 6500 ft,
Overcast 11000 ft
KSAT 221951Z 07005KT 10SM -RA FEW065 OVC110 18/11 A3015 RMK AO2 RAE1856B34 SLP198 P0000 T01780106
KPHX - Carefree, AZ
Updated: Oct 22 2018 3:51 pm
Partly Cloudy  
Partly Cloudy  
   Wind: varies 6.9 mph
Wind: varies 6.9 mph
Temperature: 86°F
Dew Point: 57.2°F
Humidity: 38%
Barometer: 29.85 inHg
Clouds: Partly Cloudy
Visibility: 10 mi
Cloud details: Few Clouds 6000 ft,
Few Clouds 8000 ft,
Partly Cloudy 25000 ft
KPHX 221951Z VRB06KT 10SM FEW060 FEW080 SCT250 30/14 A2985 RMK AO2 SLP091 T03000144
 

Script developed by  Saratoga-weather.org Adapted for the template by  Weerstation Leuven